Time;durP1;ratioP1;P1;durP2;ratioP2;P2;SDS_P1;SDS_P2;PMS_P1;PMS_P2;Temp;Humidity;BMP_temperature;BMP_pressure;BME280_temperature;BME280_humidity;BME280_pressure;Samples;Min_cycle;Max_cycle;Signal;HPM_P1;HPM_P2
2022/02/27 00:01:21;;;;;;;24.43;14.20;;;2.30;99.90;;;;;;4189439;28;20257;-59
2022/02/27 00:03:22;;;;;;;28.67;15.77;;;2.30;99.90;;;;;;4190999;28;20303;-55
2022/02/27 00:05:23;;;;;;;28.37;14.73;;;2.30;99.90;;;;;;4189783;28;20261;-54
2022/02/27 00:07:25;;;;;;;25.73;14.57;;;2.30;99.90;;;;;;4189227;28;20661;-60
2022/02/27 00:09:28;;;;;;;25.23;15.17;;;2.20;99.90;;;;;;4189329;28;20319;-56
2022/02/27 00:11:30;;;;;;;29.17;15.63;;;2.20;99.90;;;;;;4190839;28;20305;-49
2022/02/27 00:13:31;;;;;;;24.53;12.27;;;2.10;99.90;;;;;;4189430;28;20257;-57
2022/02/27 00:15:32;;;;;;;24.33;14.20;;;2.10;99.90;;;;;;4190310;28;20261;-53
2022/02/27 00:17:36;;;;;;;22.70;13.10;;;2.10;99.90;;;;;;4189796;28;20281;-74
2022/02/27 00:19:37;;;;;;;20.30;11.93;;;2.00;99.90;;;;;;4196833;28;20277;-58
2022/02/27 00:21:38;;;;;;;17.93;10.40;;;2.10;99.90;;;;;;4204029;28;20410;-63
2022/02/27 00:23:40;;;;;;;17.83;9.67;;;2.10;99.90;;;;;;4189353;28;20660;-76
2022/02/27 00:25:41;;;;;;;16.10;8.00;;;2.00;99.90;;;;;;4190698;28;20756;-47
2022/02/27 00:27:42;;;;;;;16.43;9.07;;;2.10;99.90;;;;;;4190249;28;20795;-61
2022/02/27 00:29:43;;;;;;;15.60;8.13;;;2.10;99.90;;;;;;4282601;22;20294;-48
2022/02/27 00:31:44;;;;;;;12.73;7.70;;;2.10;99.90;;;;;;4172494;28;21447;-55
2022/02/27 00:33:46;;;;;;;17.20;9.10;;;2.00;99.90;;;;;;4173264;28;20320;-58
2022/02/27 00:35:47;;;;;;;18.93;10.83;;;2.10;99.90;;;;;;4172032;28;20270;-54
2022/02/27 00:37:48;;;;;;;25.00;12.47;;;2.10;99.90;;;;;;4173703;28;20298;-63
2022/02/27 00:39:49;;;;;;;24.00;13.53;;;2.00;99.90;;;;;;4173432;28;20273;-48
2022/02/27 00:41:50;;;;;;;25.23;13.47;;;2.00;99.90;;;;;;4173150;28;21098;-55
2022/02/27 00:43:52;;;;;;;26.30;14.43;;;1.90;99.90;;;;;;4173750;28;20258;-53
2022/02/27 00:45:53;;;;;;;26.00;14.00;;;1.80;99.90;;;;;;4173171;28;20662;-54
2022/02/27 00:47:54;;;;;;;33.83;15.43;;;1.80;99.90;;;;;;4173353;28;20800;-45
2022/02/27 00:49:55;;;;;;;33.50;15.23;;;1.80;99.90;;;;;;4170920;28;20278;-52
2022/02/27 00:51:56;;;;;;;31.17;16.23;;;1.70;99.90;;;;;;4173359;28;20289;-58
2022/02/27 00:53:57;;;;;;;26.27;15.10;;;1.70;99.90;;;;;;4172721;28;20273;-57
2022/02/27 00:55:59;;;;;;;26.30;14.13;;;1.70;99.90;;;;;;4174302;28;20304;-56
2022/02/27 00:58:00;;;;;;;23.97;13.63;;;1.70;99.90;;;;;;4172322;28;20691;-56
2022/02/27 01:00:02;;;;;;;24.53;11.10;;;1.60;99.90;;;;;;4173773;28;20340;-53
2022/02/27 01:02:04;;;;;;;20.17;12.80;;;1.60;99.90;;;;;;4174733;28;20278;-61
2022/02/27 01:04:05;;;;;;;23.23;11.77;;;1.60;99.90;;;;;;4173848;28;20282;-48
2022/02/27 01:06:06;;;;;;;22.90;12.27;;;1.60;99.90;;;;;;4172738;28;20737;-62
2022/02/27 01:08:07;;;;;;;24.17;12.70;;;1.60;99.90;;;;;;4172709;28;20274;-60
2022/02/27 01:10:09;;;;;;;25.33;12.47;;;1.60;99.90;;;;;;4173363;28;20258;-52
2022/02/27 01:12:10;;;;;;;21.50;11.53;;;1.60;99.90;;;;;;4175987;28;20769;-56
2022/02/27 01:14:11;;;;;;;22.53;11.17;;;1.60;99.90;;;;;;4177103;28;20328;-56
2022/02/27 01:16:12;;;;;;;22.43;13.30;;;1.60;99.90;;;;;;4175399;28;20254;-65
2022/02/27 01:18:13;;;;;;;23.30;12.90;;;1.60;99.90;;;;;;4176991;28;20584;-58
2022/02/27 01:20:14;;;;;;;24.13;13.63;;;1.60;99.90;;;;;;4175388;28;20312;-41
2022/02/27 01:22:16;;;;;;;24.47;12.40;;;1.60;99.90;;;;;;4177200;28;20332;-67
2022/02/27 01:24:17;;;;;;;22.53;10.63;;;1.50;99.90;;;;;;4175834;28;20266;-44
2022/02/27 01:26:18;;;;;;;22.77;10.37;;;1.60;99.90;;;;;;4177369;28;20312;-56
2022/02/27 01:28:19;;;;;;;20.83;9.63;;;1.60;99.90;;;;;;4175546;28;20274;-58
2022/02/27 01:30:20;;;;;;;19.93;10.17;;;1.60;99.90;;;;;;4176972;28;20327;-62
2022/02/27 01:32:21;;;;;;;18.40;9.53;;;1.60;99.90;;;;;;4175402;28;20290;-49
2022/02/27 01:34:22;;;;;;;14.60;8.43;;;1.60;99.90;;;;;;4176821;28;20274;-53
2022/02/27 01:36:24;;;;;;;20.10;9.20;;;1.60;99.90;;;;;;4175643;28;20258;-47
2022/02/27 01:38:25;;;;;;;18.07;8.10;;;1.60;99.90;;;;;;4175648;28;20306;-68
2022/02/27 01:40:26;;;;;;;14.73;9.03;;;1.60;99.90;;;;;;4175824;28;20339;-65
2022/02/27 01:42:28;;;;;;;18.17;8.87;;;1.60;99.90;;;;;;4175383;28;20694;-56
2022/02/27 01:44:29;;;;;;;18.33;8.60;;;1.60;99.90;;;;;;4175992;28;20262;-56
2022/02/27 01:46:30;;;;;;;16.63;8.50;;;1.60;99.90;;;;;;4175039;28;20663;-54
2022/02/27 01:48:31;;;;;;;14.83;8.20;;;1.70;99.90;;;;;;4176464;28;20725;-62
2022/02/27 01:50:32;;;;;;;13.23;8.03;;;1.70;99.90;;;;;;4436943;23;20359;-61
2022/02/27 01:52:33;;;;;;;11.90;7.40;;;1.70;99.90;;;;;;4175617;28;21204;-62
2022/02/27 01:54:35;;;;;;;14.57;7.43;;;1.70;99.90;;;;;;4176489;28;20672;-59
2022/02/27 01:56:36;;;;;;;14.07;7.30;;;1.70;99.90;;;;;;4175592;28;20270;-56
2022/02/27 01:58:37;;;;;;;12.07;6.33;;;1.70;99.90;;;;;;4175442;28;20270;-52
2022/02/27 02:00:38;;;;;;;12.07;6.40;;;1.70;99.90;;;;;;4157642;28;20337;-57
2022/02/27 02:02:40;;;;;;;11.17;6.03;;;1.70;99.90;;;;;;4174998;28;20424;-57
2022/02/27 02:04:41;;;;;;;12.00;6.33;;;1.70;99.90;;;;;;4176348;28;20305;-45
2022/02/27 02:06:43;;;;;;;14.50;6.50;;;1.70;99.90;;;;;;4175088;28;20270;-55
2022/02/27 02:08:45;;;;;;;11.03;6.17;;;1.70;99.90;;;;;;4176417;28;20336;-66
2022/02/27 02:10:46;;;;;;;15.10;6.67;;;1.80;99.90;;;;;;4175070;28;20858;-65
2022/02/27 02:12:47;;;;;;;10.30;6.00;;;1.80;99.90;;;;;;4176361;28;20742;-59
2022/02/27 02:14:49;;;;;;;15.57;6.83;;;1.80;99.90;;;;;;4175056;28;20262;-44
2022/02/27 02:17:21;;;;;;;11.87;5.83;;;1.80;99.90;;;;;;4177975;28;20324;-73
2022/02/27 02:19:24;;;;;;;15.00;6.93;;;1.90;99.90;;;;;;4156773;28;20818;-73
2022/02/27 02:21:26;;;;;;;13.87;6.83;;;1.90;99.90;;;;;;4175928;28;20787;-57
2022/02/27 02:23:27;;;;;;;12.93;6.30;;;1.90;99.90;;;;;;4157060;28;20769;-47
2022/02/27 02:25:28;;;;;;;11.93;6.07;;;2.00;99.90;;;;;;4157855;28;20314;-40
2022/02/27 02:27:32;;;;;;;11.50;6.23;;;2.00;99.90;;;;;;4156477;28;20282;-58
2022/02/27 02:29:33;;;;;;;11.30;6.10;;;2.00;99.90;;;;;;4175408;28;20269;-50
2022/02/27 02:31:35;;;;;;;14.80;8.03;;;1.90;99.90;;;;;;4175376;28;20907;-47
2022/02/27 02:33:37;;;;;;;17.47;7.87;;;1.90;99.90;;;;;;4156839;28;20287;-49
2022/02/27 02:35:38;;;;;;;10.33;6.80;;;1.90;99.90;;;;;;4175503;28;20238;-48
2022/02/27 02:37:39;;;;;;;12.50;6.90;;;1.80;99.90;;;;;;4174916;28;20266;-50
2022/02/27 02:39:40;;;;;;;14.97;7.53;;;1.80;99.90;;;;;;4175961;28;20286;-43
2022/02/27 02:41:42;;;;;;;13.57;6.77;;;1.90;99.90;;;;;;4156159;28;20845;-76
2022/02/27 02:43:47;;;;;;;12.27;6.77;;;1.80;99.90;;;;;;4175573;28;20262;-65
2022/02/27 02:45:48;;;;;;;15.83;7.40;;;1.90;99.90;;;;;;4174905;28;20748;-45
2022/02/27 02:47:55;;;;;;;14.80;8.43;;;1.90;99.90;;;;;;4175771;28;20324;-77
2022/02/27 02:49:56;;;;;;;12.93;7.20;;;1.80;99.90;;;;;;4173353;28;20298;-42
2022/02/27 02:51:58;;;;;;;13.03;7.17;;;1.90;99.90;;;;;;4176021;28;21201;-73
2022/02/27 02:53:59;;;;;;;13.07;7.40;;;1.90;99.90;;;;;;4174459;28;20258;-46
2022/02/27 02:56:02;;;;;;;16.90;7.37;;;1.90;99.90;;;;;;4176264;28;20328;-47
2022/02/27 02:58:03;;;;;;;17.33;8.07;;;1.90;99.90;;;;;;4173876;28;20274;-58
2022/02/27 03:00:08;;;;;;;13.80;7.60;;;1.90;99.90;;;;;;4157404;28;20286;-62
2022/02/27 03:02:09;;;;;;;11.43;6.80;;;1.80;99.90;;;;;;4174442;28;20742;-55
2022/02/27 03:04:10;;;;;;;41.30;19.50;;;1.80;99.90;;;;;;4174903;28;20258;-51
2022/02/27 03:06:12;;;;;;;28.80;13.47;;;1.80;99.90;;;;;;4173590;28;20332;-59
2022/02/27 03:08:13;;;;;;;20.53;9.83;;;1.80;99.90;;;;;;4175054;28;20700;-57
2022/02/27 03:10:14;;;;;;;20.03;8.43;;;1.70;99.90;;;;;;4174940;28;20266;-64
2022/02/27 03:12:16;;;;;;;15.00;8.27;;;1.70;99.90;;;;;;4173833;28;20355;-54
2022/02/27 03:14:17;;;;;;;20.07;9.23;;;1.70;99.90;;;;;;4175198;28;20250;-50
2022/02/27 03:16:18;;;;;;;17.33;9.43;;;1.70;99.90;;;;;;4173337;28;20332;-54
2022/02/27 03:18:19;;;;;;;22.23;9.93;;;1.60;99.90;;;;;;4175171;28;20258;-51
2022/02/27 03:20:20;;;;;;;21.23;11.13;;;1.60;99.90;;;;;;4174278;28;20304;-43
2022/02/27 03:22:21;;;;;;;18.80;9.47;;;1.60;99.90;;;;;;4174659;28;20641;-58
2022/02/27 03:24:23;;;;;;;17.73;9.40;;;1.60;99.90;;;;;;4173937;28;20292;-60
2022/02/27 03:26:24;;;;;;;18.57;8.17;;;1.60;99.90;;;;;;4175887;28;20262;-53
2022/02/27 03:28:25;;;;;;;18.07;8.90;;;1.60;99.90;;;;;;4173716;28;20327;-51
2022/02/27 03:30:26;;;;;;;15.73;8.60;;;1.60;99.90;;;;;;4175566;28;20262;-64
2022/02/27 03:32:27;;;;;;;17.83;8.80;;;1.60;99.90;;;;;;4173418;28;20356;-61
2022/02/27 03:34:28;;;;;;;12.87;8.23;;;1.60;99.90;;;;;;4173964;28;20266;-59
2022/02/27 03:36:30;;;;;;;15.17;8.60;;;1.60;99.90;;;;;;4174355;28;20242;-51
2022/02/27 03:38:31;;;;;;;16.17;8.63;;;1.60;99.90;;;;;;4174058;28;20331;-44
2022/02/27 03:40:32;;;;;;;15.67;8.43;;;1.60;99.90;;;;;;4174492;28;20999;-51
2022/02/27 03:42:33;;;;;;;11.00;6.40;;;1.70;99.90;;;;;;4422275;22;20434;-48
2022/02/27 03:44:34;;;;;;;12.57;7.37;;;1.70;99.90;;;;;;4190494;28;20273;-52
2022/02/27 03:46:36;;;;;;;19.57;9.40;;;1.70;99.90;;;;;;4189714;28;20277;-54
2022/02/27 03:48:37;;;;;;;23.27;10.27;;;1.80;99.90;;;;;;4191048;28;20835;-56
2022/02/27 03:50:38;;;;;;;21.83;9.97;;;1.80;99.90;;;;;;4189599;28;20265;-50
2022/02/27 03:52:39;;;;;;;23.73;10.17;;;1.80;99.90;;;;;;4340872;22;20312;-51
2022/02/27 03:54:40;;;;;;;16.63;8.33;;;1.80;99.90;;;;;;4206457;28;20276;-69
2022/02/27 03:56:41;;;;;;;20.80;8.10;;;1.70;99.90;;;;;;4208296;28;20318;-51
2022/02/27 03:58:43;;;;;;;13.57;7.03;;;1.70;99.90;;;;;;4206694;28;20268;-66
2022/02/27 04:00:44;;;;;;;18.37;8.00;;;1.70;99.90;;;;;;4207756;28;20675;-44
2022/02/27 04:02:46;;;;;;;13.93;6.83;;;1.60;99.90;;;;;;4188076;28;20254;-51
2022/02/27 04:04:47;;;;;;;12.13;5.90;;;1.60;99.90;;;;;;4207086;28;20276;-41
2022/02/27 04:06:48;;;;;;;12.50;6.93;;;1.60;99.90;;;;;;4188484;28;20269;-61
2022/02/27 04:08:49;;;;;;;13.57;6.57;;;1.50;99.90;;;;;;4205959;28;20276;-47
2022/02/27 04:10:50;;;;;;;18.00;9.53;;;1.60;99.90;;;;;;4207190;28;20329;-60
2022/02/27 04:12:51;;;;;;;21.73;10.33;;;1.60;99.90;;;;;;4206492;28;20313;-56
2022/02/27 04:14:52;;;;;;;16.53;9.10;;;1.50;99.90;;;;;;4207362;28;20269;-55
2022/02/27 04:16:55;;;;;;;16.00;8.67;;;1.40;99.90;;;;;;4187352;28;20285;-55
2022/02/27 04:18:56;;;;;;;15.63;9.53;;;1.40;99.90;;;;;;4207847;28;20310;-66
2022/02/27 04:20:57;;;;;;;18.27;10.03;;;1.30;99.90;;;;;;4187439;28;20711;-46
2022/02/27 04:22:58;;;;;;;17.40;8.47;;;1.30;99.90;;;;;;4207657;28;20679;-52
2022/02/27 04:24:59;;;;;;;20.67;9.57;;;1.20;99.90;;;;;;4206442;28;20325;-54
2022/02/27 04:27:00;;;;;;;15.10;8.20;;;1.10;99.90;;;;;;4207871;28;20299;-54
2022/02/27 04:29:02;;;;;;;14.77;7.47;;;1.10;99.90;;;;;;4205755;28;20273;-52
2022/02/27 04:31:03;;;;;;;13.37;6.50;;;1.00;99.90;;;;;;4207561;28;20269;-63
2022/02/27 04:33:04;;;;;;;12.03;6.23;;;1.00;99.90;;;;;;4206157;28;20346;-58
2022/02/27 04:35:06;;;;;;;11.17;6.30;;;1.00;99.90;;;;;;4206950;28;20272;-51
2022/02/27 04:37:07;;;;;;;8.43;4.97;;;0.90;99.90;;;;;;4206895;28;20805;-48
2022/02/27 04:39:08;;;;;;;12.07;6.47;;;0.80;99.90;;;;;;4206057;28;20261;-50
2022/02/27 04:41:09;;;;;;;9.37;5.47;;;0.80;99.90;;;;;;4207281;28;20260;-52
2022/02/27 04:43:11;;;;;;;10.53;5.80;;;0.70;99.90;;;;;;4187260;28;20337;-62
2022/02/27 04:45:12;;;;;;;11.20;5.53;;;0.70;99.90;;;;;;4198604;28;20323;-53
2022/02/27 04:47:13;;;;;;;10.50;5.67;;;0.70;99.90;;;;;;4189259;28;20322;-80
2022/02/27 04:49:14;;;;;;;12.87;6.23;;;0.60;99.90;;;;;;4190939;28;20673;-86
2022/02/27 04:51:15;;;;;;;8.60;6.03;;;0.60;99.90;;;;;;4171893;28;21380;-56
2022/02/27 04:53:16;;;;;;;8.13;5.57;;;0.60;99.90;;;;;;4172106;28;20277;-70
2022/02/27 04:55:18;;;;;;;10.17;5.87;;;0.50;99.90;;;;;;4172900;28;20284;-50
2022/02/27 04:57:19;;;;;;;10.37;5.90;;;0.50;99.90;;;;;;4173875;28;20266;-59
2022/02/27 04:59:20;;;;;;;9.47;6.00;;;0.40;99.90;;;;;;4172485;28;20274;-56
2022/02/27 05:01:21;;;;;;;11.87;6.67;;;0.40;99.90;;;;;;4174710;28;20343;-56
2022/02/27 05:03:23;;;;;;;12.13;6.90;;;0.40;99.90;;;;;;4188725;28;20257;-84
2022/02/27 05:05:24;;;;;;;10.13;5.90;;;0.40;99.90;;;;;;4190076;28;20676;-90
2022/02/27 05:07:25;;;;;;;11.40;6.00;;;0.40;99.90;;;;;;4190333;28;20315;-60
2022/02/27 05:09:26;;;;;;;11.57;7.10;;;0.40;99.90;;;;;;4189681;28;20269;-79
2022/02/27 05:11:27;;;;;;;15.50;8.53;;;0.40;99.90;;;;;;4190394;28;20350;-54
2022/02/27 05:13:28;;;;;;;20.00;10.47;;;0.50;99.90;;;;;;4189255;28;20257;-48
2022/02/27 05:15:29;;;;;;;25.63;13.17;;;0.50;99.90;;;;;;4190731;28;20343;-60
2022/02/27 05:17:31;;;;;;;22.47;12.60;;;0.50;99.90;;;;;;4189256;28;20284;-51
2022/02/27 05:19:32;;;;;;;22.17;12.83;;;0.50;99.90;;;;;;4190153;28;21347;-58
2022/02/27 05:21:33;;;;;;;25.63;14.00;;;0.50;99.90;;;;;;4187514;28;20266;-59
2022/02/27 05:23:34;;;;;;;23.20;12.17;;;0.50;99.90;;;;;;4190200;28;20342;-52
2022/02/27 05:25:35;;;;;;;22.07;12.47;;;0.40;99.90;;;;;;4189352;28;20311;-84
2022/02/27 05:27:37;;;;;;;19.47;11.73;;;0.40;99.90;;;;;;4190754;28;20323;-49
2022/02/27 05:29:38;;;;;;;23.77;12.87;;;0.40;99.90;;;;;;4187450;28;20277;-84
2022/02/27 05:31:40;;;;;;;21.53;11.77;;;0.40;99.90;;;;;;4190681;28;20748;-59
2022/02/27 05:33:41;;;;;;;22.80;10.53;;;0.40;99.90;;;;;;4187318;28;20772;-55
2022/02/27 05:35:42;;;;;;;20.63;9.23;;;0.30;99.90;;;;;;4189614;28;20323;-71
2022/02/27 05:37:43;;;;;;;19.40;10.50;;;0.30;99.90;;;;;;4187191;28;20324;-53
2022/02/27 05:39:45;;;;;;;22.73;10.97;;;0.30;99.90;;;;;;4189627;28;20273;-67
2022/02/27 05:41:47;;;;;;;20.33;10.33;;;0.30;99.90;;;;;;4189601;28;20359;-64
2022/02/27 05:43:48;;;;;;;20.90;11.87;;;0.40;99.90;;;;;;4189344;28;20265;-62
2022/02/27 05:45:49;;;;;;;25.50;12.90;;;0.40;99.90;;;;;;4190704;28;20667;-77
2022/02/27 05:47:50;;;;;;;20.53;11.73;;;0.40;99.90;;;;;;4189199;28;20406;-52
2022/02/27 05:49:51;;;;;;;17.53;9.10;;;0.40;99.90;;;;;;4190400;28;20626;-70
2022/02/27 05:51:52;;;;;;;19.67;9.73;;;0.40;99.90;;;;;;4188530;28;20286;-67
2022/02/27 05:53:53;;;;;;;15.90;9.63;;;0.40;99.90;;;;;;4177921;28;20750;-53
2022/02/27 05:55:57;;;;;;;14.20;8.80;;;0.30;99.90;;;;;;4173373;28;20316;-47
2022/02/27 05:57:58;;;;;;;15.27;8.47;;;0.30;99.90;;;;;;4176692;28;20312;-51
2022/02/27 06:00:00;;;;;;;12.80;7.27;;;0.30;99.90;;;;;;4175417;28;20270;-57
2022/02/27 06:02:01;;;;;;;14.60;8.10;;;0.30;99.90;;;;;;4176234;28;20379;-44
2022/02/27 06:04:02;;;;;;;27.27;9.40;;;0.40;99.90;;;;;;4174789;28;20289;-57
2022/02/27 06:06:03;;;;;;;12.33;7.57;;;0.30;99.90;;;;;;4176066;28;20273;-48
2022/02/27 06:08:04;;;;;;;17.43;8.00;;;0.40;99.90;;;;;;4175971;28;20311;-53
2022/02/27 06:10:06;;;;;;;13.77;8.00;;;0.50;99.90;;;;;;4175405;28;20316;-51
2022/02/27 06:12:07;;;;;;;15.77;7.87;;;0.40;99.90;;;;;;4175640;28;20355;-63
2022/02/27 06:14:09;;;;;;;13.23;7.40;;;0.50;99.90;;;;;;4174905;28;20332;-52
2022/02/27 06:16:11;;;;;;;14.43;7.53;;;0.60;99.90;;;;;;4175779;28;20336;-64
2022/02/27 06:18:12;;;;;;;13.10;8.30;;;0.60;99.90;;;;;;4174635;28;20324;-64
2022/02/27 06:20:13;;;;;;;13.77;6.97;;;0.70;99.90;;;;;;4176668;28;20274;-63
2022/02/27 06:22:14;;;;;;;15.07;6.50;;;0.70;99.90;;;;;;4174214;28;20258;-58
2022/02/27 06:24:16;;;;;;;15.17;6.93;;;0.80;99.90;;;;;;4179151;28;20367;-59
2022/02/27 06:26:17;;;;;;;14.17;7.67;;;0.80;99.90;;;;;;4177255;28;20404;-62
2022/02/27 06:28:18;;;;;;;14.30;7.70;;;0.90;99.90;;;;;;4181229;28;20811;-80
2022/02/27 06:30:22;;;;;;;13.53;6.80;;;1.00;99.90;;;;;;4224292;22;20868;-53
2022/02/27 06:32:23;;;;;;;16.00;8.03;;;1.00;99.90;;;;;;4207589;28;20330;-47
2022/02/27 06:34:24;;;;;;;23.30;11.50;;;1.10;99.90;;;;;;4208476;28;20326;-72
2022/02/27 06:36:26;;;;;;;24.67;13.17;;;1.10;99.90;;;;;;4206948;28;20268;-49
2022/02/27 06:38:27;;;;;;;19.80;11.20;;;1.10;99.90;;;;;;4208975;28;20655;-48
2022/02/27 06:40:28;;;;;;;27.10;13.73;;;1.10;99.90;;;;;;4207744;28;20705;-53
2022/02/27 06:42:29;;;;;;;34.37;15.93;;;1.00;99.90;;;;;;4207991;28;20318;-48
2022/02/27 06:44:30;;;;;;;47.27;23.50;;;1.10;99.90;;;;;;4188386;28;20315;-63
2022/02/27 06:46:32;;;;;;;40.83;21.07;;;1.10;99.90;;;;;;4208252;28;20276;-58
2022/02/27 06:48:33;;;;;;;31.00;15.47;;;1.20;99.90;;;;;;4207946;28;20684;-57
2022/02/27 06:50:34;;;;;;;21.47;10.97;;;1.20;99.90;;;;;;4199998;28;20687;-67
2022/02/27 06:52:35;;;;;;;18.23;7.60;;;1.20;99.90;;;;;;4190205;28;20305;-63
2022/02/27 06:54:37;;;;;;;20.17;10.10;;;1.30;99.90;;;;;;4190840;28;20785;-55
2022/02/27 06:56:38;;;;;;;21.70;9.93;;;1.40;99.90;;;;;;4192440;28;20668;-65
2022/02/27 06:58:40;;;;;;;19.20;9.43;;;1.50;99.90;;;;;;4190461;28;20270;-82
2022/02/27 07:00:41;;;;;;;17.87;10.33;;;1.60;99.90;;;;;;4191817;28;20285;-68
2022/02/27 07:02:42;;;;;;;22.30;10.73;;;1.80;99.90;;;;;;4190339;28;20261;-53
2022/02/27 07:04:43;;;;;;;15.13;7.80;;;1.90;99.90;;;;;;4191749;28;20323;-61
2022/02/27 07:06:44;;;;;;;20.30;10.37;;;1.90;99.90;;;;;;4190456;28;20339;-65
2022/02/27 07:08:45;;;;;;;22.37;11.03;;;2.10;99.90;;;;;;4190960;28;20340;-53
2022/02/27 07:10:46;;;;;;;22.50;11.10;;;2.20;99.90;;;;;;4190609;28;20261;-49
2022/02/27 07:12:48;;;;;;;18.43;10.07;;;2.30;99.90;;;;;;4191746;28;20309;-51
2022/02/27 07:14:49;;;;;;;23.63;10.33;;;2.40;99.90;;;;;;4190998;28;20307;-87
2022/02/27 07:16:50;;;;;;;18.13;9.87;;;2.50;99.90;;;;;;4191176;28;20257;-48
2022/02/27 07:18:56;;;;;;;22.33;9.90;;;2.50;99.90;;;;;;4205075;22;20297;-79
2022/02/27 07:20:57;;;;;;;17.83;10.13;;;2.50;99.90;;;;;;4190750;28;20265;-44
2022/02/27 07:22:59;;;;;;;19.73;9.80;;;2.50;99.90;;;;;;4191232;28;20269;-62
2022/02/27 07:25:00;;;;;;;20.97;10.43;;;2.60;99.90;;;;;;4191002;28;20346;-48
2022/02/27 07:27:01;;;;;;;21.00;9.73;;;2.60;99.90;;;;;;4190311;28;20323;-48
2022/02/27 07:29:02;;;;;;;23.20;10.83;;;2.70;99.90;;;;;;4191127;28;20761;-63
2022/02/27 07:31:03;;;;;;;22.27;8.50;;;2.90;99.90;;;;;;4189894;28;20281;-52
2022/02/27 07:33:04;;;;;;;19.10;9.53;;;3.00;99.90;;;;;;4190964;28;20465;-60
2022/02/27 07:35:06;;;;;;;20.57;8.70;;;3.10;99.90;;;;;;4189831;28;20636;-67
2022/02/27 07:37:07;;;;;;;17.80;9.70;;;3.10;99.90;;;;;;4189261;28;20840;-58
2022/02/27 07:39:08;;;;;;;20.67;9.53;;;3.30;99.90;;;;;;4189843;28;20273;-63
2022/02/27 07:41:09;;;;;;;17.27;9.23;;;3.40;99.90;;;;;;4191112;28;20277;-59
2022/02/27 07:43:11;;;;;;;17.50;7.83;;;3.50;99.90;;;;;;4189562;28;20285;-59
2022/02/27 07:45:12;;;;;;;11.30;5.43;;;3.50;99.90;;;;;;4259558;22;20297;-53
2022/02/27 07:47:13;;;;;;;11.53;6.50;;;3.40;99.90;;;;;;4189499;28;20273;-60
2022/02/27 07:49:15;;;;;;;15.93;6.87;;;3.50;99.90;;;;;;4190222;28;20269;-55
2022/02/27 07:51:16;;;;;;;9.87;5.67;;;3.50;99.90;;;;;;4190180;28;20315;-46
2022/02/27 07:53:17;;;;;;;14.37;5.97;;;3.60;99.90;;;;;;4189711;28;20301;-48
2022/02/27 07:55:20;;;;;;;8.30;4.97;;;3.70;99.90;;;;;;4190350;28;20765;-46
2022/02/27 07:57:21;;;;;;;10.60;5.17;;;3.70;99.90;;;;;;4171964;28;20401;-64
2022/02/27 07:59:22;;;;;;;9.40;5.60;;;3.70;99.90;;;;;;4589520;22;20414;-48
2022/02/27 08:01:24;;;;;;;12.37;5.67;;;4.00;99.90;;;;;;4189935;28;20316;-43
2022/02/27 08:03:25;;;;;;;8.90;5.13;;;4.30;99.90;;;;;;4189112;28;20269;-59
2022/02/27 08:05:26;;;;;;;12.37;5.37;;;4.50;99.90;;;;;;4190463;28;20323;-56
2022/02/27 08:07:27;;;;;;;12.10;4.47;;;4.70;99.90;;;;;;4171348;28;20271;-50
2022/02/27 08:09:29;;;;;;;9.37;5.40;;;4.80;99.90;;;;;;4190382;28;20737;-47
2022/02/27 08:11:31;;;;;;;9.80;4.97;;;4.60;99.90;;;;;;4188747;28;20835;-56
2022/02/27 08:13:32;;;;;;;9.67;3.93;;;4.50;99.90;;;;;;4190107;28;20289;-50
2022/02/27 08:15:33;;;;;;;10.77;4.60;;;4.50;99.90;;;;;;4188520;28;20311;-61
2022/02/27 08:17:34;;;;;;;6.93;4.07;;;4.50;99.90;;;;;;4190398;28;20418;-60
2022/02/27 08:19:35;;;;;;;14.37;5.13;;;4.60;99.90;;;;;;4189042;28;20295;-57
2022/02/27 08:21:38;;;;;;;6.67;3.10;;;4.70;99.90;;;;;;4172077;28;20282;-56
2022/02/27 08:23:40;;;;;;;7.23;3.37;;;4.70;99.90;;;;;;4459285;22;20304;-41
2022/02/27 08:25:41;;;;;;;5.37;2.70;;;4.90;99.90;;;;;;4189611;28;20335;-47
2022/02/27 08:27:42;;;;;;;5.30;2.53;;;5.00;99.90;;;;;;4171603;28;20277;-55
2022/02/27 08:29:44;;;;;;;6.00;2.70;;;5.10;99.90;;;;;;4172423;28;20278;-57
2022/02/27 08:31:45;;;;;;;4.93;2.50;;;5.20;99.90;;;;;;4189049;28;20314;-55
2022/02/27 08:33:47;;;;;;;6.63;2.63;;;5.20;99.90;;;;;;4172111;28;20302;-48
2022/02/27 08:35:48;;;;;;;8.80;2.70;;;5.20;99.90;;;;;;4188040;28;20273;-51
2022/02/27 08:37:49;;;;;;;11.43;2.67;;;5.20;99.90;;;;;;4189781;28;20326;-72
2022/02/27 08:39:51;;;;;;;6.47;2.50;;;5.20;99.70;;;;;;4189498;28;20281;-52
2022/02/27 08:41:53;;;;;;;5.77;2.63;;;5.00;98.60;;;;;;4189768;28;20339;-47
2022/02/27 08:43:54;;;;;;;5.17;2.40;;;5.00;98.70;;;;;;4188509;28;20815;-54
2022/02/27 08:45:55;;;;;;;9.40;3.00;;;5.00;99.40;;;;;;4189788;28;20323;-48
2022/02/27 08:47:56;;;;;;;5.70;3.00;;;5.10;99.90;;;;;;4188704;28;20269;-59
2022/02/27 08:49:57;;;;;;;3.40;1.80;;;5.10;99.90;;;;;;4189808;28;20327;-57
2022/02/27 08:51:58;;;;;;;8.50;2.13;;;5.10;98.50;;;;;;4188506;28;20331;-64
2022/02/27 08:53:59;;;;;;;8.63;2.23;;;5.20;99.50;;;;;;4189842;28;20289;-44
2022/02/27 08:56:01;;;;;;;5.27;2.30;;;5.40;99.20;;;;;;4189171;28;20249;-48
2022/02/27 08:58:02;;;;;;;3.97;1.87;;;5.60;98.90;;;;;;4189918;28;20961;-46
2022/02/27 09:00:06;;;;;;;8.90;2.37;;;5.60;98.40;;;;;;4189292;28;20346;-60
2022/02/27 09:02:07;;;;;;;4.00;2.07;;;5.70;98.30;;;;;;4170736;28;20355;-55
2022/02/27 09:04:08;;;;;;;3.23;2.07;;;5.90;97.50;;;;;;4171278;28;20274;-50
2022/02/27 09:06:09;;;;;;;4.03;2.40;;;6.00;97.00;;;;;;4188848;28;20257;-66
2022/02/27 09:08:10;;;;;;;3.93;2.20;;;6.00;97.60;;;;;;4241670;22;20313;-56
2022/02/27 09:10:15;;;;;;;5.13;2.90;;;5.90;96.40;;;;;;4172052;28;20870;-66
2022/02/27 09:12:16;;;;;;;4.30;2.03;;;5.90;97.20;;;;;;4173211;28;20278;-56
2022/02/27 09:14:17;;;;;;;3.80;2.23;;;6.00;97.10;;;;;;4172217;28;20832;-48
2022/02/27 09:16:19;;;;;;;6.10;2.27;;;5.90;96.40;;;;;;4173070;28;20324;-41
2022/02/27 09:18:20;;;;;;;7.13;2.47;;;6.00;95.50;;;;;;4172267;28;20795;-55
2022/02/27 09:20:21;;;;;;;4.70;2.90;;;6.00;96.00;;;;;;4172599;28;20250;-55
2022/02/27 09:22:22;;;;;;;5.67;2.40;;;5.90;96.30;;;;;;4172233;28;20266;-66
2022/02/27 09:24:23;;;;;;;4.43;2.40;;;5.80;96.10;;;;;;4172355;28;20274;-52
2022/02/27 09:26:24;;;;;;;7.93;2.23;;;5.90;96.00;;;;;;4173331;28;20313;-65
2022/02/27 09:28:25;;;;;;;4.00;2.20;;;5.90;96.40;;;;;;4172183;28;20262;-58
2022/02/27 09:30:27;;;;;;;3.37;2.10;;;6.10;95.80;;;;;;4173452;28;20364;-57
2022/02/27 09:32:28;;;;;;;3.73;2.20;;;6.20;95.90;;;;;;4172678;28;20269;-67
2022/02/27 09:34:29;;;;;;;12.27;2.40;;;6.20;95.50;;;;;;4176968;28;20599;-49
2022/02/27 09:36:30;;;;;;;6.73;2.97;;;6.20;94.60;;;;;;4175229;28;20791;-62
2022/02/27 09:38:31;;;;;;;5.67;2.13;;;6.00;95.10;;;;;;4176374;28;20277;-47
2022/02/27 09:40:32;;;;;;;3.87;2.20;;;6.20;95.60;;;;;;4174279;28;20037;-65
2022/02/27 09:42:34;;;;;;;6.73;3.07;;;6.50;95.10;;;;;;4175933;28;20106;-48
2022/02/27 09:44:40;;;;;;;3.77;1.70;;;6.80;94.90;;;;;;4172782;28;20309;-60
2022/02/27 09:46:48;;;;;;;8.67;2.70;;;6.90;93.10;;;;;;4176331;28;20113;-57
2022/02/27 09:48:49;;;;;;;5.50;2.33;;;6.80;92.50;;;;;;4174804;28;20370;-51
2022/02/27 09:50:51;;;;;;;3.47;1.80;;;6.40;92.60;;;;;;4176429;28;20266;-67
2022/02/27 09:52:53;;;;;;;5.27;2.10;;;6.30;92.80;;;;;;4174876;28;20664;-57
2022/02/27 09:54:54;;;;;;;5.07;2.30;;;6.30;93.20;;;;;;4175649;28;20412;-48
2022/02/27 09:56:55;;;;;;;5.23;1.80;;;6.40;93.10;;;;;;4175811;28;20481;-57
2022/02/27 09:58:56;;;;;;;6.50;2.47;;;6.50;93.00;;;;;;4175207;28;20042;-47
2022/02/27 10:00:57;;;;;;;3.70;2.03;;;6.50;92.90;;;;;;4175447;28;20033;-60
2022/02/27 10:03:10;;;;;;;6.17;2.13;;;6.50;92.30;;;;;;4175050;28;20033;-59
2022/02/27 10:05:11;;;;;;;4.07;2.27;;;6.50;92.10;;;;;;4175737;28;20491;-44
2022/02/27 10:07:15;;;;;;;4.10;2.10;;;6.70;93.10;;;;;;4290373;22;20044;-46
2022/02/27 10:09:24;;;;;;;8.33;2.30;;;6.60;91.40;;;;;;4170553;28;20949;-71
2022/02/27 10:11:25;;;;;;;5.50;1.60;;;6.60;90.90;;;;;;4182779;28;20036;-56
2022/02/27 10:13:44;;;;;;;2.53;1.60;;;6.30;90.40;;;;;;4189413;28;20293;-70
2022/02/27 10:16:02;;;;;;;5.73;2.43;;;6.20;90.50;;;;;;4175376;28;20488;-80
2022/02/27 10:18:13;;;;;;;2.97;1.60;;;6.20;90.90;;;;;;4174919;28;20851;-56
2022/02/27 10:20:16;;;;;;;6.27;1.60;;;6.30;91.30;;;;;;4174285;28;20270;-48
2022/02/27 10:22:31;;;;;;;7.70;1.70;;;6.20;91.10;;;;;;4174884;28;20262;-63
2022/02/27 10:24:35;;;;;;;2.73;1.40;;;6.30;91.30;;;;;;4175005;28;20106;-62
2022/02/27 10:26:38;;;;;;;2.13;1.60;;;6.40;90.60;;;;;;4180638;28;20078;-73
2022/02/27 10:28:39;;;;;;;7.83;2.03;;;6.30;90.70;;;;;;4190513;28;20021;-67
2022/02/27 10:30:40;;;;;;;5.23;1.70;;;6.40;91.00;;;;;;4190948;28;20093;-67
2022/02/27 10:32:57;;;;;;;4.27;2.20;;;6.50;90.60;;;;;;4189743;28;20479;-66